Time;durP1;ratioP1;P1;durP2;ratioP2;P2;SDS_P1;SDS_P2;PMS_P1;PMS_P2;Temp;Humidity;BMP_temperature;BMP_pressure;BME280_temperature;BME280_humidity;BME280_pressure;Samples;Min_cycle;Max_cycle;Signal;HPM_P1;HPM_P2
2021/08/31 00:00:54;;;;;;;14.88;11.43;;;15.40;99.90;;;;;;5069407;28;20417;-80
2021/08/31 00:03:20;;;;;;;17.43;11.03;;;15.40;99.90;;;;;;5051031;28;20394;-81
2021/08/31 00:05:46;;;;;;;12.93;11.15;;;15.40;99.90;;;;;;5050979;28;20405;-81
2021/08/31 00:08:11;;;;;;;13.50;10.73;;;15.40;99.90;;;;;;5068959;28;20410;-81
2021/08/31 00:10:37;;;;;;;15.98;11.10;;;15.40;99.90;;;;;;5069127;28;20735;-80
2021/08/31 00:13:03;;;;;;;14.02;10.25;;;15.40;99.90;;;;;;5069967;28;20385;-82
2021/08/31 00:15:29;;;;;;;13.82;11.02;;;15.50;99.90;;;;;;5051811;28;20410;-79
2021/08/31 00:17:56;;;;;;;14.20;10.47;;;15.50;99.90;;;;;;5069555;28;20402;-82
2021/08/31 00:20:22;;;;;;;14.90;10.43;;;15.40;99.90;;;;;;5069400;28;20461;-83
2021/08/31 00:22:47;;;;;;;14.77;11.05;;;15.40;99.90;;;;;;5069445;28;20797;-82
2021/08/31 00:25:13;;;;;;;15.87;11.47;;;15.30;99.90;;;;;;5069751;28;20426;-81
2021/08/31 00:27:38;;;;;;;12.77;11.20;;;15.30;99.90;;;;;;5068350;28;20428;-81
2021/08/31 00:30:05;;;;;;;14.90;11.40;;;15.30;99.90;;;;;;5050877;28;20868;-79
2021/08/31 00:32:31;;;;;;;13.45;10.65;;;15.30;99.90;;;;;;5068997;28;20378;-83
2021/08/31 00:34:56;;;;;;;16.70;11.05;;;15.30;99.90;;;;;;5068802;28;20435;-79
2021/08/31 00:37:22;;;;;;;18.27;12.00;;;15.20;99.90;;;;;;5069378;28;20370;-82
2021/08/31 00:39:47;;;;;;;18.25;12.38;;;15.10;99.90;;;;;;5069334;28;20860;-80
2021/08/31 00:42:13;;;;;;;14.87;12.10;;;15.00;99.90;;;;;;5069052;28;20406;-82
2021/08/31 00:44:39;;;;;;;15.68;12.00;;;15.00;99.90;;;;;;5072379;28;20447;-83
2021/08/31 00:47:07;;;;;;;15.35;12.35;;;15.00;99.90;;;;;;5054822;28;20389;-79
2021/08/31 00:49:33;;;;;;;16.33;12.25;;;15.00;99.90;;;;;;5069442;28;20409;-78
2021/08/31 00:52:00;;;;;;;15.57;11.32;;;15.10;99.90;;;;;;5072473;28;20413;-81
2021/08/31 00:54:27;;;;;;;15.45;11.45;;;15.20;99.90;;;;;;5072297;28;20362;-79
2021/08/31 00:56:54;;;;;;;17.52;12.15;;;15.20;99.90;;;;;;5072150;28;20930;-83
2021/08/31 00:59:21;;;;;;;16.83;12.15;;;15.20;99.90;;;;;;5071959;28;20431;-80
2021/08/31 01:01:50;;;;;;;14.82;11.35;;;15.20;99.90;;;;;;5054581;28;20490;-79
2021/08/31 01:04:18;;;;;;;13.95;11.73;;;15.20;99.90;;;;;;5072475;28;20563;-80
2021/08/31 01:06:45;;;;;;;14.70;12.00;;;15.00;99.90;;;;;;5054496;28;20853;-82
2021/08/31 01:09:11;;;;;;;16.10;12.05;;;15.00;99.90;;;;;;5053840;28;20551;-81
2021/08/31 01:11:38;;;;;;;14.38;12.07;;;15.00;99.90;;;;;;5054666;28;20379;-83
2021/08/31 01:14:07;;;;;;;15.50;12.55;;;15.00;99.90;;;;;;5072046;28;20382;-83
2021/08/31 01:16:33;;;;;;;16.23;12.50;;;15.00;99.90;;;;;;5072605;28;20406;-84
2021/08/31 01:18:59;;;;;;;14.63;12.37;;;15.00;99.90;;;;;;5072227;28;20447;-82
2021/08/31 01:21:24;;;;;;;16.52;12.45;;;15.00;99.90;;;;;;5071897;28;20537;-82
2021/08/31 01:23:51;;;;;;;18.65;13.15;;;14.90;99.90;;;;;;5054306;28;20385;-84
2021/08/31 01:26:17;;;;;;;16.10;12.45;;;14.90;99.90;;;;;;5072526;28;20819;-81
2021/08/31 01:28:42;;;;;;;14.95;12.25;;;14.90;99.90;;;;;;5072658;28;20378;-80
2021/08/31 01:31:08;;;;;;;16.58;12.52;;;14.80;99.90;;;;;;5072133;28;20452;-80
2021/08/31 01:33:34;;;;;;;16.58;12.88;;;14.80;99.90;;;;;;5072581;28;20366;-81
2021/08/31 01:36:21;;;;;;;18.17;12.48;;;14.70;99.90;;;;;;5071827;28;20469;-80
2021/08/31 01:38:51;;;;;;;20.05;12.98;;;14.80;99.90;;;;;;5071753;28;20820;-81
2021/08/31 01:41:18;;;;;;;18.17;13.50;;;14.70;99.90;;;;;;5071798;28;20409;-80
2021/08/31 01:43:44;;;;;;;19.42;13.02;;;14.80;99.90;;;;;;5072093;28;20377;-80
2021/08/31 01:46:10;;;;;;;15.60;13.13;;;14.80;99.90;;;;;;5071715;28;20451;-83
2021/08/31 01:48:36;;;;;;;16.42;13.90;;;14.70;99.90;;;;;;5071514;28;21111;-78
2021/08/31 01:51:02;;;;;;;15.45;13.60;;;14.60;99.90;;;;;;5071817;28;20382;-83
2021/08/31 01:53:27;;;;;;;16.02;13.23;;;14.60;99.90;;;;;;5071380;28;20386;-81
2021/08/31 01:55:53;;;;;;;17.33;13.50;;;14.60;99.90;;;;;;5072079;28;20394;-78
2021/08/31 01:58:19;;;;;;;17.13;13.80;;;14.60;99.90;;;;;;5071488;28;20385;-80
2021/08/31 02:00:44;;;;;;;14.27;12.77;;;14.50;99.90;;;;;;5071449;28;20436;-81
2021/08/31 02:03:10;;;;;;;18.53;14.27;;;14.60;99.90;;;;;;5052862;28;20370;-81
2021/08/31 02:05:36;;;;;;;18.45;13.57;;;14.50;99.90;;;;;;5071827;28;20779;-83
2021/08/31 02:08:01;;;;;;;18.17;14.80;;;14.50;99.90;;;;;;5071116;28;20856;-80
2021/08/31 02:10:27;;;;;;;17.60;13.93;;;14.40;99.90;;;;;;5070950;28;20390;-81
2021/08/31 02:12:53;;;;;;;17.75;14.77;;;14.50;99.90;;;;;;5052686;28;20378;-79
2021/08/31 02:15:19;;;;;;;18.17;13.75;;;14.60;99.90;;;;;;5071444;28;20469;-79
2021/08/31 02:17:44;;;;;;;17.83;13.60;;;14.50;99.90;;;;;;5070878;28;20412;-82
2021/08/31 02:20:11;;;;;;;17.58;13.40;;;14.60;99.90;;;;;;5070277;28;20382;-80
2021/08/31 02:22:38;;;;;;;19.08;13.35;;;14.50;99.90;;;;;;5071159;28;20374;-82
2021/08/31 02:25:04;;;;;;;14.95;12.48;;;14.60;99.90;;;;;;5071012;28;20409;-78
2021/08/31 02:27:30;;;;;;;16.92;12.85;;;14.70;99.90;;;;;;5070440;28;20386;-82
2021/08/31 02:29:56;;;;;;;16.63;12.68;;;14.70;99.90;;;;;;5070612;28;20379;-82
2021/08/31 02:32:22;;;;;;;16.43;12.90;;;14.70;99.90;;;;;;5070173;28;20374;-80
2021/08/31 02:34:47;;;;;;;16.50;12.53;;;14.70;99.90;;;;;;5070240;28;20385;-80
2021/08/31 02:37:13;;;;;;;15.98;13.15;;;14.70;99.90;;;;;;5070409;28;20408;-82
2021/08/31 02:39:38;;;;;;;16.30;13.23;;;14.80;99.90;;;;;;5053032;28;20405;-82
2021/08/31 02:42:04;;;;;;;18.23;12.73;;;14.80;99.90;;;;;;5069835;28;20406;-80
2021/08/31 02:44:30;;;;;;;15.63;12.98;;;14.90;99.90;;;;;;5070393;28;20440;-81
2021/08/31 02:46:55;;;;;;;16.93;12.37;;;14.90;99.90;;;;;;5070231;28;20378;-82
2021/08/31 02:49:21;;;;;;;15.98;12.38;;;14.90;99.90;;;;;;5051926;28;20828;-80
2021/08/31 02:51:46;;;;;;;18.40;12.90;;;14.80;99.90;;;;;;5070232;28;20390;-78
2021/08/31 02:54:12;;;;;;;17.13;12.60;;;14.80;99.90;;;;;;5069846;28;20904;-82
2021/08/31 02:56:38;;;;;;;16.07;12.57;;;14.90;99.90;;;;;;5069847;28;20748;-80
2021/08/31 02:59:04;;;;;;;14.70;11.77;;;14.90;99.90;;;;;;5069465;28;20414;-78
2021/08/31 03:03:59;;;;;;;14.05;11.68;;;14.90;99.90;;;;;;5069431;28;20382;-80
2021/08/31 03:06:26;;;;;;;14.93;12.38;;;15.00;99.90;;;;;;5069318;28;20412;-79
2021/08/31 03:08:51;;;;;;;15.35;12.07;;;14.90;99.90;;;;;;5069708;28;20376;-80
2021/08/31 03:11:17;;;;;;;16.27;12.73;;;14.90;99.90;;;;;;5051967;28;20382;-82
2021/08/31 03:13:43;;;;;;;16.20;12.03;;;14.80;99.90;;;;;;5052431;28;20398;-81
2021/08/31 03:16:08;;;;;;;14.00;12.20;;;14.80;99.90;;;;;;5069268;28;20382;-81
2021/08/31 03:18:34;;;;;;;14.60;11.77;;;14.80;99.90;;;;;;5051226;28;20465;-80
2021/08/31 03:21:00;;;;;;;16.13;11.90;;;14.90;99.90;;;;;;5069104;28;20408;-81
2021/08/31 03:23:25;;;;;;;17.52;12.60;;;14.80;99.90;;;;;;5069210;28;20385;-78
2021/08/31 03:25:51;;;;;;;13.93;11.10;;;14.80;99.90;;;;;;5069671;28;20366;-81
2021/08/31 03:28:16;;;;;;;14.07;11.97;;;14.90;99.90;;;;;;5069908;28;20378;-80
2021/08/31 03:30:42;;;;;;;12.93;11.63;;;14.80;99.90;;;;;;5052139;28;20465;-80
2021/08/31 03:33:08;;;;;;;15.70;12.10;;;14.80;99.90;;;;;;5069542;28;20373;-83
2021/08/31 03:35:34;;;;;;;13.00;11.40;;;14.70;99.90;;;;;;5070154;28;20527;-80
2021/08/31 03:37:59;;;;;;;14.73;11.45;;;14.80;99.90;;;;;;5068973;28;21049;-80
2021/08/31 03:40:25;;;;;;;12.10;10.77;;;14.80;99.90;;;;;;5069625;28;20362;-81
2021/08/31 03:42:52;;;;;;;15.60;11.60;;;14.90;99.90;;;;;;5052062;28;20378;-78
2021/08/31 03:45:18;;;;;;;11.88;10.15;;;14.90;99.90;;;;;;5069387;28;20378;-84
2021/08/31 03:47:43;;;;;;;14.27;10.30;;;15.00;99.90;;;;;;5069354;28;20374;-82
2021/08/31 03:50:10;;;;;;;13.23;10.17;;;15.00;99.90;;;;;;5051286;28;20862;-80
2021/08/31 03:52:36;;;;;;;12.88;9.80;;;15.00;99.90;;;;;;5069641;28;20382;-79
2021/08/31 03:55:02;;;;;;;11.17;9.97;;;15.00;99.90;;;;;;5051230;28;20729;-80
2021/08/31 03:57:27;;;;;;;10.43;9.40;;;15.00;99.90;;;;;;5069611;28;21139;-82
2021/08/31 03:59:53;;;;;;;12.60;9.80;;;15.10;99.90;;;;;;5069266;28;20386;-81
2021/08/31 04:02:21;;;;;;;11.03;9.83;;;15.00;99.90;;;;;;5069125;28;20888;-83
2021/08/31 04:04:46;;;;;;;13.00;9.57;;;15.00;99.90;;;;;;5051827;28;20390;-78
2021/08/31 04:07:12;;;;;;;12.80;9.63;;;15.00;99.90;;;;;;5069220;28;20378;-79
2021/08/31 04:09:37;;;;;;;11.65;9.77;;;15.00;99.90;;;;;;5068855;28;20381;-83
2021/08/31 04:12:03;;;;;;;12.17;10.00;;;15.00;99.90;;;;;;5050706;28;20497;-81
2021/08/31 04:14:29;;;;;;;11.93;9.98;;;15.00;99.90;;;;;;5051730;28;20795;-82
2021/08/31 04:16:54;;;;;;;12.88;10.00;;;15.00;99.90;;;;;;5068704;28;20398;-79
2021/08/31 04:19:20;;;;;;;11.83;9.63;;;14.90;99.90;;;;;;5072494;28;20378;-83
2021/08/31 04:21:46;;;;;;;12.68;10.63;;;15.00;99.90;;;;;;5073233;28;20422;-80
2021/08/31 04:24:11;;;;;;;16.73;11.23;;;15.00;99.90;;;;;;5072724;28;20461;-81
2021/08/31 04:26:37;;;;;;;11.95;10.30;;;14.90;99.90;;;;;;5072711;28;20890;-81
2021/08/31 04:29:02;;;;;;;13.37;11.00;;;14.90;99.90;;;;;;5072197;28;20370;-80
2021/08/31 04:31:28;;;;;;;12.80;10.60;;;14.90;99.90;;;;;;5072275;28;21167;-82
2021/08/31 04:33:53;;;;;;;13.77;11.00;;;14.80;99.90;;;;;;5072450;28;20410;-80
2021/08/31 04:36:19;;;;;;;12.43;10.35;;;14.70;99.90;;;;;;5072818;28;20370;-84
2021/08/31 04:38:45;;;;;;;13.23;10.27;;;14.60;99.90;;;;;;5072898;28;20388;-83
2021/08/31 04:41:11;;;;;;;12.60;10.52;;;14.70;99.90;;;;;;5073105;28;20429;-83
2021/08/31 04:43:37;;;;;;;12.50;10.90;;;14.60;99.90;;;;;;5072983;28;20864;-81
2021/08/31 04:46:03;;;;;;;13.70;10.45;;;14.60;99.90;;;;;;5072761;28;20378;-82
2021/08/31 04:48:29;;;;;;;12.77;10.35;;;14.60;99.90;;;;;;5073389;28;20951;-80
2021/08/31 04:50:54;;;;;;;13.73;10.57;;;14.60;99.90;;;;;;5055135;28;20470;-82
2021/08/31 04:53:20;;;;;;;12.20;10.32;;;14.60;99.90;;;;;;5072887;28;20410;-82
2021/08/31 04:55:46;;;;;;;17.15;10.40;;;14.60;99.90;;;;;;5073570;28;20424;-83
2021/08/31 04:58:12;;;;;;;12.25;10.48;;;14.50;99.90;;;;;;5072773;28;20484;-79
2021/08/31 05:00:38;;;;;;;14.02;11.00;;;14.70;99.90;;;;;;5072727;28;21062;-84
2021/08/31 05:03:04;;;;;;;13.83;10.43;;;14.60;99.90;;;;;;5072923;28;20377;-80
2021/08/31 05:05:30;;;;;;;11.88;10.63;;;14.70;99.90;;;;;;5072464;28;20929;-78
2021/08/31 05:07:55;;;;;;;13.07;10.40;;;14.80;99.90;;;;;;5054150;28;20390;-80
2021/08/31 05:10:21;;;;;;;12.32;10.10;;;14.80;99.90;;;;;;5054463;28;20382;-79
2021/08/31 05:12:47;;;;;;;12.00;10.80;;;14.70;99.90;;;;;;5072834;28;20381;-82
2021/08/31 05:15:12;;;;;;;12.53;10.27;;;14.70;99.90;;;;;;5071714;28;20370;-80
2021/08/31 05:17:39;;;;;;;13.20;10.90;;;14.80;99.90;;;;;;5071870;28;20473;-82
2021/08/31 05:20:05;;;;;;;11.52;10.32;;;14.80;99.90;;;;;;5053215;28;20381;-82
2021/08/31 05:22:31;;;;;;;12.52;10.95;;;14.80;99.90;;;;;;5072449;28;20393;-82
2021/08/31 05:24:58;;;;;;;14.43;11.10;;;14.80;99.90;;;;;;5071735;28;20378;-80
2021/08/31 05:27:24;;;;;;;12.83;10.50;;;14.90;99.90;;;;;;5053872;28;20371;-80
2021/08/31 05:29:50;;;;;;;13.00;10.67;;;14.70;99.90;;;;;;5052278;28;20389;-79
2021/08/31 05:32:16;;;;;;;12.50;10.10;;;14.80;99.90;;;;;;5071904;28;20460;-81
2021/08/31 05:34:42;;;;;;;12.40;10.50;;;14.90;99.90;;;;;;5072059;28;20376;-81
2021/08/31 05:37:08;;;;;;;11.70;10.33;;;15.00;99.90;;;;;;5071004;28;20375;-82
2021/08/31 05:39:34;;;;;;;12.23;10.93;;;15.00;99.90;;;;;;5071166;28;20448;-79
2021/08/31 05:42:07;;;;;;;12.57;10.57;;;15.20;99.90;;;;;;5071666;28;20968;-84
2021/08/31 05:44:34;;;;;;;12.20;10.65;;;15.20;99.90;;;;;;5071740;28;20386;-80
2021/08/31 05:47:01;;;;;;;12.65;10.98;;;15.10;99.90;;;;;;5070691;28;20876;-80
2021/08/31 05:49:26;;;;;;;13.30;10.70;;;15.20;99.90;;;;;;5071784;28;20463;-82
2021/08/31 05:51:53;;;;;;;12.97;10.60;;;15.20;99.90;;;;;;5053579;28;20843;-82
2021/08/31 05:54:20;;;;;;;12.50;10.30;;;15.20;99.90;;;;;;5071253;28;20382;-83
2021/08/31 05:56:47;;;;;;;14.93;10.53;;;15.20;99.90;;;;;;5052650;28;20475;-81
2021/08/31 05:59:13;;;;;;;12.18;9.90;;;15.40;99.90;;;;;;5071002;28;20481;-82
2021/08/31 06:01:40;;;;;;;13.63;10.38;;;15.50;99.90;;;;;;5070782;28;20501;-82
2021/08/31 06:04:05;;;;;;;11.60;10.18;;;15.50;99.90;;;;;;5070921;28;20460;-80
2021/08/31 06:06:31;;;;;;;11.27;9.83;;;15.70;99.90;;;;;;5070819;28;20378;-79
2021/08/31 06:08:56;;;;;;;11.00;9.90;;;15.70;99.90;;;;;;5070872;28;20885;-82
2021/08/31 06:11:22;;;;;;;11.43;9.73;;;15.90;99.90;;;;;;5070447;28;20370;-81
2021/08/31 06:13:48;;;;;;;11.88;9.85;;;16.00;99.90;;;;;;5070690;28;20374;-79
2021/08/31 06:16:13;;;;;;;10.43;9.32;;;16.00;99.90;;;;;;5070602;28;20381;-83
2021/08/31 06:18:39;;;;;;;10.57;9.20;;;16.00;99.90;;;;;;5052894;28;20682;-80
2021/08/31 06:21:05;;;;;;;12.50;10.13;;;16.10;99.90;;;;;;5070731;28;21188;-82
2021/08/31 06:23:31;;;;;;;11.43;9.60;;;16.30;99.90;;;;;;5070802;28;20417;-79
2021/08/31 06:25:56;;;;;;;11.67;9.73;;;16.30;99.90;;;;;;5071111;28;20366;-83
2021/08/31 06:28:22;;;;;;;10.95;9.32;;;16.40;99.90;;;;;;5070614;28;20472;-82
2021/08/31 06:30:47;;;;;;;12.10;9.03;;;16.60;99.90;;;;;;5070579;28;20386;-84
2021/08/31 06:33:13;;;;;;;10.02;8.95;;;16.60;99.90;;;;;;5070405;28;20378;-87
2021/08/31 06:35:38;;;;;;;11.03;8.60;;;16.60;99.90;;;;;;5070666;28;20732;-83
2021/08/31 06:38:04;;;;;;;13.73;9.27;;;16.60;99.90;;;;;;5070421;28;20450;-82
2021/08/31 06:40:30;;;;;;;11.93;9.27;;;16.60;99.90;;;;;;5069805;28;20370;-79
2021/08/31 06:42:55;;;;;;;10.30;8.85;;;16.60;99.90;;;;;;5070349;28;20691;-82
2021/08/31 06:45:21;;;;;;;10.40;9.27;;;16.60;99.90;;;;;;5052349;28;20452;-79
2021/08/31 06:47:47;;;;;;;9.63;8.47;;;16.60;99.90;;;;;;5070434;28;20493;-80
2021/08/31 06:50:16;;;;;;;14.57;8.80;;;16.70;99.90;;;;;;5069929;28;20744;-80
2021/08/31 06:52:44;;;;;;;10.70;8.57;;;16.80;99.90;;;;;;5070013;28;20384;-82
2021/08/31 06:55:10;;;;;;;11.57;8.77;;;16.90;99.90;;;;;;5069957;28;20374;-82
2021/08/31 06:57:36;;;;;;;10.23;8.90;;;16.90;99.90;;;;;;5069705;28;20381;-83
2021/08/31 07:00:04;;;;;;;10.85;8.68;;;16.90;99.90;;;;;;5069608;28;20410;-80
2021/08/31 07:02:30;;;;;;;8.95;8.05;;;16.80;99.90;;;;;;5069875;28;20405;-81
2021/08/31 07:04:55;;;;;;;9.43;8.47;;;16.90;99.90;;;;;;5069580;28;20408;-81
2021/08/31 07:07:21;;;;;;;9.30;8.35;;;16.80;99.90;;;;;;5069419;28;20400;-84
2021/08/31 07:09:47;;;;;;;9.93;8.60;;;16.70;99.90;;;;;;5067891;28;20473;-81
2021/08/31 07:12:13;;;;;;;9.02;8.07;;;16.60;99.90;;;;;;5066587;28;20382;-83
2021/08/31 07:14:39;;;;;;;10.32;7.97;;;16.70;99.90;;;;;;5050340;28;20477;-81
2021/08/31 07:17:05;;;;;;;8.70;7.70;;;16.70;99.90;;;;;;5068432;28;20452;-81
2021/08/31 07:19:30;;;;;;;11.63;8.30;;;16.90;99.90;;;;;;5068019;28;20398;-81
2021/08/31 07:21:56;;;;;;;10.60;8.73;;;17.00;99.90;;;;;;5068142;28;20501;-81
2021/08/31 07:24:22;;;;;;;9.27;7.68;;;17.00;99.90;;;;;;5068468;28;20502;-83
2021/08/31 07:26:49;;;;;;;9.20;7.95;;;17.10;99.90;;;;;;5051634;28;20374;-83
2021/08/31 07:29:14;;;;;;;8.38;7.57;;;17.10;99.90;;;;;;5069357;28;20449;-81
2021/08/31 07:31:40;;;;;;;8.93;7.82;;;17.20;99.90;;;;;;5069858;28;20532;-80
2021/08/31 07:34:06;;;;;;;9.20;7.88;;;17.20;99.90;;;;;;5069093;28;20382;-82
2021/08/31 07:36:31;;;;;;;9.10;8.20;;;17.20;99.90;;;;;;5069606;28;20731;-81
2021/08/31 07:38:58;;;;;;;8.73;7.82;;;17.10;99.90;;;;;;5068712;28;20440;-82
2021/08/31 07:41:24;;;;;;;8.40;7.30;;;16.90;99.90;;;;;;5068506;28;20393;-82
2021/08/31 07:43:50;;;;;;;9.07;7.85;;;17.00;99.90;;;;;;5069798;28;20461;-85
2021/08/31 07:46:16;;;;;;;8.13;7.32;;;17.20;99.90;;;;;;5069522;28;20848;-80
2021/08/31 07:48:42;;;;;;;8.80;7.57;;;17.10;99.90;;;;;;5069693;28;20427;-82
2021/08/31 07:51:08;;;;;;;8.73;7.47;;;17.10;99.90;;;;;;5068757;28;20405;-82
2021/08/31 07:53:33;;;;;;;10.27;7.55;;;17.30;99.90;;;;;;5071980;28;20851;-84
2021/08/31 07:55:59;;;;;;;9.23;7.37;;;17.30;99.90;;;;;;5073892;28;20445;-82
2021/08/31 07:58:24;;;;;;;8.00;7.20;;;17.30;99.90;;;;;;5072918;28;20409;-80
2021/08/31 08:00:50;;;;;;;8.43;7.50;;;17.40;99.90;;;;;;5073403;28;20402;-81
2021/08/31 08:03:15;;;;;;;8.38;7.47;;;17.40;99.90;;;;;;5073741;28;20443;-81
2021/08/31 08:05:41;;;;;;;8.77;7.70;;;17.30;99.90;;;;;;5073358;28;20378;-81
2021/08/31 08:08:07;;;;;;;10.53;7.70;;;17.30;99.90;;;;;;5073771;28;20440;-84
2021/08/31 08:10:32;;;;;;;8.70;7.80;;;17.30;99.90;;;;;;5073533;28;20374;-82
2021/08/31 08:12:58;;;;;;;9.63;7.80;;;17.40;99.90;;;;;;5073715;28;20358;-79
2021/08/31 08:15:24;;;;;;;8.65;7.78;;;17.40;99.90;;;;;;5073115;28;20370;-82
2021/08/31 08:17:50;;;;;;;9.57;7.63;;;17.50;99.90;;;;;;5072547;28;20384;-81
2021/08/31 08:20:16;;;;;;;8.27;6.80;;;17.50;99.90;;;;;;5054711;28;20740;-83
2021/08/31 08:22:42;;;;;;;8.82;7.53;;;17.60;99.90;;;;;;5073111;28;20402;-84
2021/08/31 08:25:09;;;;;;;9.05;7.68;;;17.70;99.90;;;;;;5073323;28;20713;-84
2021/08/31 08:27:34;;;;;;;9.10;7.40;;;17.80;99.90;;;;;;5074062;28;20378;-82
2021/08/31 08:30:00;;;;;;;8.48;6.88;;;17.90;99.90;;;;;;5074377;28;20490;-82
2021/08/31 08:32:26;;;;;;;8.43;7.22;;;18.00;99.90;;;;;;5073096;28;20400;-82
2021/08/31 08:34:52;;;;;;;8.53;7.63;;;18.30;99.90;;;;;;5072974;28;20366;-80
2021/08/31 08:37:17;;;;;;;8.13;7.25;;;18.20;99.90;;;;;;5072400;28;20439;-83
2021/08/31 08:39:43;;;;;;;7.87;6.70;;;18.30;99.90;;;;;;5057335;28;20379;-82
2021/08/31 08:42:10;;;;;;;11.35;7.00;;;18.60;99.90;;;;;;5072003;28;20390;-80
2021/08/31 08:44:36;;;;;;;9.02;6.93;;;18.70;99.90;;;;;;5072450;28;20402;-80
2021/08/31 08:47:02;;;;;;;7.72;6.93;;;18.60;99.90;;;;;;5072807;28;20795;-82
2021/08/31 08:49:28;;;;;;;8.68;7.05;;;18.80;99.90;;;;;;5071906;28;20419;-82
2021/08/31 08:51:56;;;;;;;8.40;7.07;;;19.20;99.90;;;;;;5072479;28;20410;-81
2021/08/31 08:54:23;;;;;;;8.35;6.53;;;19.40;99.90;;;;;;5072402;28;20435;-82
2021/08/31 08:56:50;;;;;;;8.02;6.78;;;19.30;99.90;;;;;;5071990;28;20859;-80
2021/08/31 08:59:16;;;;;;;8.90;7.30;;;19.20;99.90;;;;;;5072588;28;20480;-81
2021/08/31 09:01:51;;;;;;;8.50;7.57;;;19.10;99.90;;;;;;5072678;28;20493;-83
2021/08/31 09:04:19;;;;;;;10.38;7.40;;;19.10;99.90;;;;;;5051220;28;20490;-84
2021/08/31 09:06:45;;;;;;;8.13;7.00;;;19.00;99.90;;;;;;5070923;28;20720;-83
2021/08/31 09:09:12;;;;;;;7.78;6.97;;;18.90;99.90;;;;;;5070532;28;20477;-82
2021/08/31 09:11:39;;;;;;;8.30;7.07;;;18.80;99.90;;;;;;5052610;28;20382;-80
2021/08/31 09:14:28;;;;;;;8.50;7.68;;;18.70;99.90;;;;;;5070787;28;20921;-83
2021/08/31 09:17:02;;;;;;;7.63;6.90;;;18.80;99.90;;;;;;5070667;28;20480;-82
2021/08/31 09:19:40;;;;;;;9.43;8.00;;;18.80;99.90;;;;;;5052929;28;20754;-82
2021/08/31 09:22:16;;;;;;;8.48;7.07;;;18.70;99.90;;;;;;5071261;28;20484;-81
2021/08/31 09:24:59;;;;;;;8.32;7.13;;;18.80;99.90;;;;;;5071890;28;20370;-83
2021/08/31 09:27:37;;;;;;;8.93;6.82;;;19.10;99.90;;;;;;5070636;28;20405;-81
2021/08/31 09:30:21;;;;;;;7.85;7.10;;;19.50;99.90;;;;;;5070884;28;20378;-81
2021/08/31 09:32:59;;;;;;;8.95;7.28;;;19.90;99.90;;;;;;5071639;28;20937;-81
2021/08/31 09:35:30;;;;;;;7.20;6.50;;;20.10;99.90;;;;;;5071196;28;20981;-82
2021/08/31 09:37:59;;;;;;;7.68;6.88;;;20.30;99.90;;;;;;5070487;28;20417;-84
2021/08/31 09:40:27;;;;;;;6.97;6.23;;;20.50;99.90;;;;;;5055483;28;20378;-81
2021/08/31 09:43:05;;;;;;;10.50;7.10;;;21.00;99.90;;;;;;5071691;28;20504;-82
2021/08/31 09:45:41;;;;;;;7.32;6.63;;;20.90;99.90;;;;;;5071389;28;20374;-85
2021/08/31 09:48:09;;;;;;;9.90;6.68;;;20.70;99.90;;;;;;5070766;28;20752;-83
2021/08/31 09:50:41;;;;;;;8.35;6.90;;;20.50;99.90;;;;;;5069586;28;20740;-83
2021/08/31 09:53:18;;;;;;;8.50;7.30;;;20.40;99.90;;;;;;5070729;28;20389;-85
2021/08/31 09:55:50;;;;;;;8.60;6.80;;;20.20;99.90;;;;;;5070056;28;20386;-83
2021/08/31 09:58:24;;;;;;;8.63;6.65;;;20.30;99.90;;;;;;5059271;28;20917;-81
2021/08/31 10:00:52;;;;;;;7.82;6.82;;;20.40;99.90;;;;;;5070215;28;20467;-83
2021/08/31 10:03:18;;;;;;;8.85;6.70;;;20.50;99.90;;;;;;5070944;28;20722;-82
2021/08/31 10:05:46;;;;;;;9.10;6.43;;;20.80;99.90;;;;;;5070645;28;20882;-79
2021/08/31 10:08:13;;;;;;;7.78;7.00;;;21.00;99.90;;;;;;5070842;28;20468;-82
2021/08/31 10:10:40;;;;;;;8.18;7.10;;;20.60;99.90;;;;;;5069427;28;20378;-84
2021/08/31 10:13:18;;;;;;;9.18;6.97;;;20.20;99.90;;;;;;5070718;28;20389;-82
2021/08/31 10:15:46;;;;;;;9.23;7.60;;;20.00;99.90;;;;;;5070237;28;20385;-80
2021/08/31 10:18:14;;;;;;;8.07;7.05;;;19.90;99.90;;;;;;5070619;28;20394;-83
2021/08/31 10:20:47;;;;;;;9.90;7.10;;;19.90;99.90;;;;;;5070286;28;20374;-85
2021/08/31 10:23:15;;;;;;;9.32;7.28;;;19.90;99.90;;;;;;5068866;28;20756;-85
2021/08/31 10:25:41;;;;;;;8.18;6.97;;;19.70;99.90;;;;;;5068943;28;20374;-83
2021/08/31 10:28:26;;;;;;;8.00;7.25;;;19.70;99.90;;;;;;5070179;28;20378;-83
2021/08/31 10:30:53;;;;;;;7.90;7.10;;;19.80;99.90;;;;;;5068895;28;20408;-85
2021/08/31 10:33:40;;;;;;;8.05;7.22;;;19.90;99.90;;;;;;5070257;28;20404;-84
2021/08/31 10:36:11;;;;;;;11.87;7.20;;;19.90;99.90;;;;;;5070161;28;20862;-82
2021/08/31 10:38:50;;;;;;;8.45;7.05;;;20.10;99.90;;;;;;5058380;28;20394;-84
2021/08/31 10:41:42;;;;;;;7.60;6.90;;;20.30;99.90;;;;;;5049955;28;20830;-87
2021/08/31 10:44:10;;;;;;;9.00;6.93;;;20.30;99.90;;;;;;5050374;28;20877;-79
2021/08/31 10:47:02;;;;;;;9.23;6.90;;;20.40;99.90;;;;;;5049889;28;20384;-84
2021/08/31 10:49:28;;;;;;;7.10;6.45;;;20.70;99.90;;;;;;5050045;28;20979;-81
2021/08/31 10:52:14;;;;;;;7.35;6.63;;;20.90;99.90;;;;;;5068173;28;20569;-81
2021/08/31 10:54:48;;;;;;;7.53;6.57;;;20.90;99.90;;;;;;5076769;28;20389;-82
2021/08/31 10:57:36;;;;;;;7.78;6.97;;;20.80;99.90;;;;;;5077361;28;20370;-82
2021/08/31 11:00:03;;;;;;;11.75;7.28;;;20.90;99.90;;;;;;5077510;28;20391;-83
2021/08/31 11:02:52;;;;;;;7.97;6.90;;;21.00;99.90;;;;;;5053756;28;21236;-83
2021/08/31 11:05:21;;;;;;;7.63;6.75;;;21.00;99.90;;;;;;5075715;28;20402;-83
2021/08/31 11:08:07;;;;;;;7.63;6.50;;;21.00;99.90;;;;;;5076237;28;20370;-84
2021/08/31 11:10:36;;;;;;;7.85;6.70;;;21.00;99.90;;;;;;5058869;28;20439;-82
2021/08/31 11:13:28;;;;;;;8.35;6.93;;;21.20;99.90;;;;;;5075675;28;20449;-84
2021/08/31 11:15:56;;;;;;;8.80;7.20;;;20.90;99.90;;;;;;5053708;28;20442;-83
2021/08/31 11:18:21;;;;;;;8.43;6.57;;;20.80;99.90;;;;;;5057870;28;20746;-81
2021/08/31 11:20:47;;;;;;;7.60;6.50;;;21.00;99.90;;;;;;5075702;28;20404;-82
2021/08/31 11:23:18;;;;;;;8.93;6.80;;;20.90;99.90;;;;;;5076234;28;20378;-85
2021/08/31 11:25:58;;;;;;;7.95;6.38;;;21.10;99.90;;;;;;5076111;28;20719;-84
2021/08/31 11:28:33;;;;;;;9.38;6.55;;;21.00;99.90;;;;;;5058032;28;20442;-81
2021/08/31 11:31:12;;;;;;;7.93;6.32;;;20.80;99.90;;;;;;5057838;28;20471;-83
2021/08/31 11:33:40;;;;;;;7.65;5.40;;;20.90;99.90;;;;;;5057490;28;20393;-81
2021/08/31 11:36:13;;;;;;;5.60;5.10;;;21.10;99.90;;;;;;5058324;28;20377;-80
2021/08/31 11:38:49;;;;;;;5.73;5.23;;;21.00;99.90;;;;;;5058026;28;20378;-82
2021/08/31 11:41:41;;;;;;;7.38;5.18;;;20.80;99.90;;;;;;5077096;28;20431;-82
2021/08/31 11:44:07;;;;;;;5.97;5.35;;;21.00;99.90;;;;;;5058157;28;20889;-83
2021/08/31 11:46:42;;;;;;;6.65;5.95;;;21.20;99.90;;;;;;5075774;28;20368;-84
2021/08/31 11:49:22;;;;;;;7.73;6.30;;;21.00;99.90;;;;;;5075028;28;20435;-81
2021/08/31 11:51:59;;;;;;;6.05;5.45;;;20.60;99.90;;;;;;5076135;28;20512;-85
2021/08/31 11:54:27;;;;;;;6.25;5.65;;;20.50;99.90;;;;;;5074101;28;20390;-81
2021/08/31 11:56:59;;;;;;;7.07;5.70;;;20.40;99.90;;;;;;5075257;28;20389;-83
2021/08/31 11:59:41;;;;;;;6.70;5.50;;;20.40;99.90;;;;;;5075132;28;20480;-81
2021/08/31 12:02:16;;;;;;;7.20;5.90;;;20.30;99.90;;;;;;5073044;28;20404;-80
2021/08/31 12:05:01;;;;;;;5.73;4.90;;;20.20;99.90;;;;;;5056696;28;20493;-83
2021/08/31 12:07:28;;;;;;;6.20;5.20;;;20.10;99.90;;;;;;5070364;28;20468;-84
2021/08/31 12:10:18;;;;;;;8.63;5.63;;;20.00;99.90;;;;;;5055679;28;20899;-85
2021/08/31 12:12:46;;;;;;;7.68;5.50;;;20.10;99.90;;;;;;5075097;28;20381;-83
2021/08/31 12:15:12;;;;;;;7.40;5.30;;;20.40;99.90;;;;;;5076052;28;20386;-81
2021/08/31 12:17:45;;;;;;;6.13;5.15;;;20.60;99.90;;;;;;5056170;28;20375;-82
2021/08/31 12:20:13;;;;;;;6.65;5.38;;;20.70;99.90;;;;;;5074163;28;20414;-82
2021/08/31 12:22:43;;;;;;;7.57;5.50;;;20.90;99.90;;;;;;5073815;28;20783;-80
2021/08/31 12:25:10;;;;;;;7.00;4.95;;;20.90;99.90;;;;;;5073405;28;20411;-81
2021/08/31 12:27:44;;;;;;;6.70;4.93;;;20.70;99.90;;;;;;5074259;28;20447;-87
2021/08/31 12:30:13;;;;;;;7.87;5.53;;;20.70;99.90;;;;;;5074413;28;20867;-83
2021/08/31 12:32:40;;;;;;;8.63;5.38;;;20.60;99.90;;;;;;5072820;28;20383;-81
2021/08/31 12:35:29;;;;;;;7.28;5.93;;;20.60;99.90;;;;;;5068006;28;20445;-81
2021/08/31 12:38:17;;;;;;;6.10;5.03;;;20.60;99.90;;;;;;5065722;28;20396;-82
2021/08/31 12:41:34;;;;;;;6.30;5.10;;;20.50;99.90;;;;;;5070505;28;20382;-81
2021/08/31 12:44:18;;;;;;;6.13;4.70;;;20.40;99.90;;;;;;5060900;28;20847;-86